createdAt,value
2023-05-08T00:03:29.211Z,5.00
2023-05-08T00:08:30.746Z,5.10
2023-05-08T00:13:32.068Z,5.70
2023-05-08T00:18:33.422Z,4.88
2023-05-08T00:23:34.852Z,4.95
2023-05-08T00:28:36.213Z,6.30
2023-05-08T00:33:37.571Z,5.63
2023-05-08T00:38:38.968Z,5.25
2023-05-08T00:43:40.496Z,4.97
2023-05-08T00:48:42.383Z,5.65
2023-05-08T00:53:45.251Z,5.97
2023-05-08T00:58:48.028Z,5.38
2023-05-08T01:03:49.914Z,5.25
2023-05-08T01:08:51.420Z,5.30
2023-05-08T01:14:13.435Z,5.93
2023-05-08T01:19:48.711Z,4.70
2023-05-08T01:25:09.446Z,6.20
2023-05-08T01:30:15.483Z,4.97
2023-05-08T01:35:27.577Z,5.25
2023-05-08T01:41:03.262Z,5.90
2023-05-08T01:46:09.651Z,5.70
2023-05-08T01:51:23.614Z,4.50
2023-05-08T01:56:28.554Z,5.30
2023-05-08T02:01:33.234Z,5.32
2023-05-08T02:06:36.662Z,5.57
2023-05-08T02:11:39.653Z,5.45
2023-05-08T02:16:43.267Z,5.60
2023-05-08T02:21:46.271Z,5.47
2023-05-08T02:26:50.000Z,5.78
2023-05-08T02:31:54.216Z,5.90
2023-05-08T02:36:55.937Z,5.85
2023-05-08T02:41:57.867Z,5.80
2023-05-08T02:47:25.784Z,5.22
2023-05-08T02:52:49.160Z,5.95
2023-05-08T02:58:04.008Z,5.22
2023-05-08T03:03:11.997Z,6.10
2023-05-08T03:08:20.754Z,5.78
2023-05-08T03:13:22.871Z,5.97
2023-05-08T03:18:32.156Z,5.95
2023-05-08T03:23:35.934Z,5.75
2023-05-08T03:28:38.523Z,6.95
2023-05-08T03:33:42.439Z,5.97
2023-05-08T03:38:44.159Z,6.68
2023-05-08T03:43:46.199Z,6.32
2023-05-08T03:48:50.272Z,6.78
2023-05-08T03:53:51.615Z,6.78
2023-05-08T03:59:09.612Z,7.10
2023-05-08T04:04:19.513Z,6.28
2023-05-08T04:09:30.571Z,6.90
2023-05-08T04:14:37.834Z,6.82
2023-05-08T04:24:49.031Z,7.20
2023-05-08T04:29:50.473Z,7.75
2023-05-08T04:34:52.784Z,7.65
2023-05-08T04:39:54.303Z,7.30
2023-05-08T04:44:55.669Z,7.38
2023-05-08T04:49:57.430Z,7.57
2023-05-08T04:54:59.407Z,6.63
2023-05-08T05:00:00.803Z,7.32
2023-05-08T05:05:02.181Z,6.25
2023-05-08T05:10:04.202Z,6.57
2023-05-08T05:15:06.127Z,6.97
2023-05-08T05:20:08.852Z,6.72
2023-05-08T05:25:10.598Z,7.30
2023-05-08T05:30:12.467Z,6.60
2023-05-08T05:35:14.170Z,7.25
2023-05-08T05:40:15.637Z,7.65
2023-05-08T05:45:17.102Z,6.95
2023-05-08T05:50:18.796Z,7.15
2023-05-08T05:55:20.455Z,6.47
2023-05-08T06:00:22.203Z,7.70
2023-05-08T06:05:23.750Z,6.13
2023-05-08T06:10:25.276Z,6.13
2023-05-08T06:15:26.748Z,6.60
2023-05-08T06:20:28.260Z,6.45
2023-05-08T06:25:30.875Z,6.68
2023-05-08T06:30:32.280Z,6.38
2023-05-08T06:35:33.688Z,6.22
2023-05-08T06:40:35.069Z,6.95
2023-05-08T06:45:36.456Z,6.50
2023-05-08T06:50:39.289Z,7.63
2023-05-08T06:55:43.582Z,7.38
2023-05-08T07:00:44.943Z,7.22
2023-05-08T07:05:46.362Z,7.68
2023-05-08T07:10:47.680Z,7.85
2023-05-08T07:15:49.131Z,7.70
2023-05-08T07:20:50.557Z,8.23
2023-05-08T07:25:51.889Z,8.25
2023-05-08T07:30:53.234Z,7.13
2023-05-08T07:35:54.572Z,7.22
2023-05-08T07:40:57.564Z,6.65
2023-05-08T07:45:59.319Z,7.85
2023-05-08T07:51:00.795Z,7.72
2023-05-08T07:56:02.461Z,7.18
2023-05-08T08:01:03.950Z,7.20
2023-05-08T08:06:05.436Z,6.82
2023-05-08T08:11:07.560Z,6.82
2023-05-08T08:16:08.944Z,6.93
2023-05-08T08:21:10.310Z,7.22
2023-05-08T08:26:11.678Z,7.15
2023-05-08T08:31:13.206Z,7.45
2023-05-08T08:36:15.754Z,7.65
2023-05-08T08:41:17.210Z,6.93
2023-05-08T08:46:23.717Z,7.60
2023-05-08T08:51:31.819Z,7.47
2023-05-08T08:56:36.031Z,7.32
2023-05-08T09:01:41.867Z,7.80
2023-05-08T09:06:45.211Z,8.02
2023-05-08T09:11:46.818Z,7.80
2023-05-08T09:16:51.377Z,7.75
2023-05-08T09:21:52.965Z,7.60
2023-05-08T09:26:54.350Z,7.47
2023-05-08T09:31:56.111Z,7.07
2023-05-08T09:37:06.322Z,6.80
2023-05-08T09:42:07.679Z,6.57
2023-05-08T09:47:11.155Z,6.90
2023-05-08T09:52:15.845Z,6.07
2023-05-08T09:57:17.541Z,6.15
2023-05-08T10:02:20.221Z,5.75
2023-05-08T10:07:29.665Z,6.47
2023-05-08T10:12:32.008Z,6.55
2023-05-08T10:17:51.600Z,6.10
2023-05-08T10:22:55.625Z,6.43
2023-05-08T10:28:42.588Z,6.38
2023-05-08T10:33:46.498Z,6.43
2023-05-08T10:38:49.711Z,5.78
2023-05-08T10:43:51.937Z,6.43
2023-05-08T10:49:24.426Z,6.70
2023-05-08T10:54:48.069Z,6.38
2023-05-08T10:59:49.493Z,5.55
2023-05-08T11:04:51.208Z,5.30
2023-05-08T11:09:53.717Z,6.78
2023-05-08T11:15:07.053Z,6.22
2023-05-08T11:20:09.055Z,7.03
2023-05-08T11:25:10.856Z,6.35
2023-05-08T11:30:35.101Z,6.30
2023-05-08T11:35:54.669Z,7.03
2023-05-08T11:41:07.508Z,7.45
2023-05-08T11:46:17.436Z,6.85
2023-05-08T11:51:21.631Z,6.80
2023-05-08T11:56:23.050Z,6.78
2023-05-08T12:01:24.428Z,7.07
2023-05-08T12:06:27.599Z,6.82
2023-05-08T12:11:28.998Z,7.03
2023-05-08T12:16:30.442Z,7.18
2023-05-08T12:21:32.005Z,8.10
2023-05-08T12:26:40.130Z,7.22
2023-05-08T12:31:41.726Z,6.57
2023-05-08T12:36:43.259Z,7.50
2023-05-08T12:41:52.646Z,7.05
2023-05-08T12:46:56.200Z,8.05
2023-05-08T12:52:06.658Z,7.75
2023-05-08T12:57:12.222Z,7.38
2023-05-08T13:02:18.856Z,7.07
2023-05-08T13:07:20.367Z,6.43
2023-05-08T13:12:21.724Z,6.47
2023-05-08T13:17:23.142Z,6.72
2023-05-08T13:22:26.586Z,5.85
2023-05-08T13:27:28.293Z,6.55
2023-05-08T13:32:29.745Z,6.10
2023-05-08T13:37:31.104Z,6.25
2023-05-08T13:42:32.451Z,7.20
2023-05-08T13:47:33.993Z,6.55
2023-05-08T13:52:35.768Z,6.03
2023-05-08T13:57:37.420Z,5.97
2023-05-08T14:02:38.888Z,7.65
2023-05-08T14:07:40.755Z,7.03
2023-05-08T14:12:42.174Z,5.90
2023-05-08T14:17:43.683Z,5.53
2023-05-08T14:27:46.837Z,5.72
2023-05-08T14:32:48.642Z,6.00
2023-05-08T14:37:50.048Z,6.00
2023-05-08T14:42:51.491Z,5.30
2023-05-08T14:47:52.897Z,6.18
2023-05-08T14:52:54.494Z,6.47
2023-05-08T14:57:56.410Z,6.88
2023-05-08T15:02:57.895Z,6.03
2023-05-08T15:07:59.618Z,6.22
2023-05-08T15:13:01.149Z,6.95
2023-05-08T15:18:02.662Z,5.72
2023-05-08T15:23:04.509Z,6.00
2023-05-08T15:28:06.316Z,4.70
2023-05-08T15:33:07.686Z,5.63
2023-05-08T15:38:09.261Z,5.53
2023-05-08T15:43:10.726Z,6.07
2023-05-08T15:48:12.373Z,5.13
2023-05-08T15:53:14.181Z,4.70
2023-05-08T15:58:15.831Z,4.10
2023-05-08T16:03:17.455Z,4.28
2023-05-08T16:08:19.120Z,4.38
2023-05-08T16:13:21.036Z,4.40
2023-05-08T16:18:22.862Z,3.85
2023-05-08T16:23:24.481Z,3.60
2023-05-08T16:28:25.918Z,3.92
2023-05-08T16:33:27.335Z,4.03
2023-05-08T16:38:28.714Z,4.90
2023-05-08T16:43:30.438Z,6.35
2023-05-08T16:48:31.854Z,4.90
2023-05-08T16:53:33.196Z,4.88
2023-05-08T16:58:34.574Z,4.80
2023-05-08T17:03:36.249Z,5.00
2023-05-08T17:08:37.712Z,4.28
2023-05-08T17:13:39.079Z,4.78
2023-05-08T17:18:40.505Z,4.75
2023-05-08T17:23:41.943Z,4.72
2023-05-08T17:28:43.440Z,4.80
2023-05-08T17:33:45.024Z,4.50
2023-05-08T17:38:47.178Z,4.80
2023-05-08T17:43:48.579Z,5.72
2023-05-08T17:48:49.987Z,5.35
2023-05-08T17:53:52.980Z,5.80
2023-05-08T17:58:55.467Z,6.32
2023-05-08T18:03:56.903Z,6.25
2023-05-08T18:08:58.268Z,6.10
2023-05-08T18:13:59.607Z,6.60
2023-05-08T18:19:00.996Z,6.07
2023-05-08T18:24:02.513Z,7.05
2023-05-08T18:29:03.894Z,7.22
2023-05-08T18:34:05.262Z,7.07
2023-05-08T18:39:06.625Z,6.78
2023-05-08T18:44:09.228Z,7.32
2023-05-08T18:49:10.648Z,7.03
2023-05-08T18:54:12.010Z,7.95
2023-05-08T18:59:13.523Z,7.55
2023-05-08T19:04:15.135Z,7.50
2023-05-08T19:09:16.597Z,7.53
2023-05-08T19:14:17.926Z,7.72
2023-05-08T19:19:19.331Z,7.20
2023-05-08T19:24:23.923Z,7.90
2023-05-08T19:29:25.341Z,6.72
2023-05-08T19:34:26.820Z,8.18
2023-05-08T19:39:28.154Z,8.32
2023-05-08T19:44:31.425Z,8.13
2023-05-08T19:49:32.761Z,7.53
2023-05-08T19:54:34.157Z,7.80
2023-05-08T19:59:35.541Z,7.85
2023-05-08T20:04:48.699Z,8.05
2023-05-08T20:09:58.328Z,7.20
2023-05-08T20:14:59.689Z,8.77
2023-05-08T20:20:01.233Z,8.77
2023-05-08T20:25:04.424Z,8.57
2023-05-08T20:30:06.811Z,9.00
2023-05-08T20:35:08.807Z,8.27
2023-05-08T20:40:10.844Z,9.60
2023-05-08T20:45:12.557Z,9.52
2023-05-08T20:50:16.038Z,9.43
2023-05-08T20:55:17.685Z,9.02
2023-05-08T21:00:19.466Z,9.38
2023-05-08T21:05:20.859Z,8.43
2023-05-08T21:10:22.207Z,8.20
2023-05-08T21:15:24.236Z,8.80
2023-05-08T21:20:25.595Z,8.80
2023-05-08T21:25:26.992Z,8.82
2023-05-08T21:30:28.730Z,9.93
2023-05-08T21:35:30.207Z,10.27
2023-05-08T21:40:31.531Z,10.45
2023-05-08T21:45:33.154Z,11.98
2023-05-08T21:50:34.564Z,11.80
2023-05-08T21:55:36.050Z,10.95
2023-05-08T22:00:37.454Z,11.38
2023-05-08T22:05:38.801Z,12.20
2023-05-08T22:10:40.512Z,11.05
2023-05-08T22:15:42.415Z,12.35
2023-05-08T22:20:43.863Z,11.27
2023-05-08T22:25:45.227Z,10.70
2023-05-08T22:30:46.624Z,10.82
2023-05-08T22:35:47.955Z,11.90
2023-05-08T22:40:49.391Z,12.30
2023-05-08T22:45:50.865Z,10.70
2023-05-08T22:50:52.549Z,9.93
2023-05-08T22:55:53.917Z,12.15
2023-05-08T23:00:55.746Z,12.10
2023-05-08T23:05:57.213Z,10.95
2023-05-08T23:10:58.556Z,10.25
2023-05-08T23:15:59.929Z,10.20
2023-05-08T23:21:08.212Z,11.10
2023-05-08T23:26:09.622Z,11.48
2023-05-08T23:31:11.081Z,11.10
2023-05-08T23:36:12.485Z,10.45
2023-05-08T23:41:14.061Z,10.23
2023-05-08T23:46:15.812Z,9.48
2023-05-08T23:51:17.211Z,9.55
2023-05-08T23:56:18.612Z,9.25
